Time;durP1;ratioP1;P1;durP2;ratioP2;P2;SDS_P1;SDS_P2;PMS_P1;PMS_P2;Temp;Humidity;BMP_temperature;BMP_pressure;BME280_temperature;BME280_humidity;BME280_pressure;Samples;Min_cycle;Max_cycle;Signal;HPM_P1;HPM_P2
2022/07/21 00:00:07;;;;;;;0.83;0.74;;;;;;;18.12;65.44;100138.67;474571;111;923096;-78
2022/07/21 00:01:11;;;;;;;0.95;0.63;;;;;;;18.14;65.26;100137.27;474755;111;922995;-78
2022/07/21 00:02:14;;;;;;;0.60;0.60;;;;;;;18.16;65.19;100135.08;474841;111;923012;-77
2022/07/21 00:03:17;;;;;;;2.37;0.71;;;;;;;18.18;65.23;100132.88;474945;111;922495;-78
2022/07/21 00:04:20;;;;;;;1.01;0.90;;;;;;;18.21;65.18;100132.32;474933;111;922839;-78
2022/07/21 00:05:24;;;;;;;0.84;0.74;;;;;;;18.23;65.02;100127.36;474903;111;922551;-78
2022/07/21 00:06:28;;;;;;;0.74;0.74;;;;;;;18.25;64.92;100127.06;474658;111;923157;-78
2022/07/21 00:07:31;;;;;;;0.68;0.62;;;;;;;18.25;64.84;100127.89;459945;111;923037;-78
2022/07/21 00:08:34;;;;;;;0.98;0.73;;;;;;;18.26;64.79;100132.31;459753;115;922904;-78
2022/07/21 00:09:37;;;;;;;1.66;0.83;;;;;;;18.28;64.71;100129.28;459753;115;922446;-78
2022/07/21 00:10:41;;;;;;;1.87;0.91;;;;;;;18.28;64.63;100124.59;459861;113;922502;-78
2022/07/21 00:11:44;;;;;;;1.06;0.73;;;;;;;18.29;64.58;100122.67;465342;114;930240;-78
2022/07/21 00:12:47;;;;;;;0.75;0.71;;;;;;;18.30;64.51;100125.13;465480;114;922766;-78
2022/07/21 00:13:50;;;;;;;0.84;0.84;;;;;;;18.31;64.40;100126.80;465470;112;923046;-78
2022/07/21 00:14:53;;;;;;;0.94;0.79;;;;;;;18.33;64.39;100132.05;461174;114;922800;-78
2022/07/21 00:15:57;;;;;;;1.08;0.98;;;;;;;18.33;64.42;100132.88;457392;116;923185;-78
2022/07/21 00:17:01;;;;;;;1.07;0.92;;;;;;;18.34;64.28;100128.19;457328;116;922984;-78
2022/07/21 00:18:04;;;;;;;1.11;0.93;;;;;;;18.34;64.20;100128.19;448068;118;922981;-78
2022/07/21 00:19:08;;;;;;;1.07;1.00;;;;;;;18.34;64.08;100122.66;448309;116;923155;-78
2022/07/21 00:20:13;;;;;;;1.03;0.82;;;;;;;18.34;64.07;100122.66;457279;116;922478;-78
2022/07/21 00:21:16;;;;;;;1.41;0.81;;;;;;;18.34;63.91;100122.66;457143;116;923249;-78
2022/07/21 00:22:19;;;;;;;1.04;0.94;;;;;;;18.34;63.88;100122.66;457338;116;922553;-78
2022/07/21 00:23:25;;;;;;;1.69;0.98;;;;;;;18.34;63.85;100120.73;457403;116;922581;-78
2022/07/21 00:24:29;;;;;;;1.34;1.07;;;;;;;18.33;63.77;100118.24;457178;115;923091;-78
2022/07/21 00:25:32;;;;;;;0.87;0.82;;;;;;;18.32;63.72;100116.58;457405;116;922928;-77
2022/07/21 00:26:37;;;;;;;1.29;1.09;;;;;;;18.31;63.85;100117.68;457172;116;922608;-78
2022/07/21 00:27:40;;;;;;;0.88;0.86;;;;;;;18.30;63.64;100114.09;457366;116;923005;-78
2022/07/21 00:28:43;;;;;;;1.29;1.10;;;;;;;18.29;63.74;100117.98;457357;115;922510;-79
2022/07/21 00:29:46;;;;;;;1.40;1.14;;;;;;;18.29;63.65;100111.63;460509;114;922532;-78
2022/07/21 00:30:49;;;;;;;1.16;1.06;;;;;;;18.29;63.71;100119.91;463023;114;922549;-78
2022/07/21 00:31:52;;;;;;;2.08;1.20;;;;;;;18.29;63.70;100117.15;464006;113;922998;-78
2022/07/21 00:32:56;;;;;;;1.09;1.01;;;;;;;18.30;63.65;100118.81;462836;114;923216;-78
2022/07/21 00:33:58;;;;;;;1.22;1.05;;;;;;;18.29;63.47;100117.15;460636;114;922546;-78
2022/07/21 00:35:02;;;;;;;1.18;1.09;;;;;;;18.28;63.61;100121.01;457509;116;923593;-78
2022/07/21 00:36:05;;;;;;;3.17;1.25;;;;;;;18.28;63.59;100119.08;457404;116;922518;-78
2022/07/21 00:37:08;;;;;;;1.34;1.24;;;;;;;18.29;63.61;100111.63;457312;116;930367;-78
2022/07/21 00:38:11;;;;;;;2.03;1.31;;;;;;;18.28;63.61;100121.01;457457;116;930416;-78
2022/07/21 00:39:14;;;;;;;1.44;1.03;;;;;;;18.29;63.60;100117.15;457443;116;922668;-78
2022/07/21 00:40:19;;;;;;;2.15;1.32;;;;;;;18.30;63.50;100118.81;457248;116;922759;-78
2022/07/21 00:41:23;;;;;;;1.26;1.16;;;;;;;18.29;63.39;100115.22;457371;116;930696;-78
2022/07/21 00:42:28;;;;;;;2.57;1.46;;;;;;;18.29;63.48;100114.39;457471;116;923162;-78
2022/07/21 00:43:31;;;;;;;1.99;1.42;;;;;;;18.29;63.50;100112.46;457333;116;922549;-79
2022/07/21 00:44:34;;;;;;;1.39;1.29;;;;;;;18.31;63.46;100115.75;457523;116;922492;-78
2022/07/21 00:45:37;;;;;;;2.87;1.17;;;;;;;18.31;63.38;100110.23;457524;116;922785;-77
2022/07/21 00:46:40;;;;;;;1.54;1.25;;;;;;;18.32;63.28;100113.82;457477;116;922837;-77
2022/07/21 00:47:43;;;;;;;1.43;1.15;;;;;;;18.32;63.21;100106.38;457466;116;922932;-78
2022/07/21 00:48:47;;;;;;;2.32;1.41;;;;;;;18.31;63.15;100110.23;457341;116;922906;-78
2022/07/21 00:49:50;;;;;;;1.01;1.00;;;;;;;18.33;63.21;100116.31;457406;116;930882;-78
2022/07/21 00:50:53;;;;;;;1.49;1.34;;;;;;;18.33;63.26;100108.03;457349;116;923130;-78
2022/07/21 00:51:56;;;;;;;1.70;1.36;;;;;;;18.34;63.06;100108.86;457373;116;930248;-77
2022/07/21 00:53:00;;;;;;;1.45;1.31;;;;;;;18.34;62.92;100111.63;457443;116;922502;-78
2022/07/21 00:54:03;;;;;;;1.71;1.29;;;;;;;18.35;62.91;100107.77;457372;116;923161;-79
2022/07/21 00:55:09;;;;;;;2.49;1.67;;;;;;;18.34;62.80;100106.10;457357;116;930404;-78
2022/07/21 00:56:12;;;;;;;2.00;1.51;;;;;;;18.33;62.74;100108.03;457230;116;922649;-78
2022/07/21 00:57:16;;;;;;;1.74;1.59;;;;;;;18.32;62.72;100108.30;457314;116;923120;-78
2022/07/21 00:58:19;;;;;;;2.06;1.69;;;;;;;18.31;62.76;100107.47;457309;116;930253;-78
2022/07/21 00:59:23;;;;;;;1.79;1.35;;;;;;;18.31;62.77;100107.47;457393;116;924516;-78
2022/07/21 01:03:04;;;;;;;1.75;1.17;;;;;;;18.32;62.86;100111.06;457217;116;930222;-78
2022/07/21 01:04:07;;;;;;;1.66;1.56;;;;;;;18.26;62.63;100107.48;457468;116;923081;-77
2022/07/21 01:05:14;;;;;;;1.74;1.62;;;;;;;18.24;62.72;100114.39;457481;116;923072;-78
2022/07/21 01:06:20;;;;;;;1.83;1.72;;;;;;;18.23;62.72;100112.73;456710;116;923291;-77
2022/07/21 01:07:22;;;;;;;1.60;1.50;;;;;;;18.21;62.80;100109.41;462678;112;922513;-78
2022/07/21 01:08:27;;;;;;;1.87;1.67;;;;;;;18.22;62.84;100116.59;457457;116;922480;-78
2022/07/21 01:09:30;;;;;;;1.78;1.42;;;;;;;18.21;62.89;100112.17;457282;116;922967;-78
2022/07/21 01:10:33;;;;;;;1.87;1.50;;;;;;;18.21;62.90;100112.17;457484;116;922697;-78
2022/07/21 01:11:38;;;;;;;2.22;1.59;;;;;;;18.22;62.94;100116.59;457445;116;922464;-78
2022/07/21 01:12:41;;;;;;;2.39;1.32;;;;;;;18.22;63.00;100114.66;457233;116;922481;-78
2022/07/21 01:13:44;;;;;;;1.76;1.66;;;;;;;18.23;63.03;100119.08;457290;116;923163;-78
2022/07/21 01:14:47;;;;;;;1.54;1.44;;;;;;;18.26;63.05;100117.69;460036;114;922981;-78
2022/07/21 01:15:50;;;;;;;1.46;1.36;;;;;;;18.27;63.07;100109.14;463481;114;923061;-78
2022/07/21 01:16:54;;;;;;;1.47;1.37;;;;;;;18.27;62.97;100109.14;463344;114;922439;-78
2022/07/21 01:17:57;;;;;;;2.01;1.57;;;;;;;18.28;62.90;100108.04;463407;114;930214;-78
2022/07/21 01:19:00;;;;;;;1.49;1.39;;;;;;;18.30;62.90;100110.53;463482;114;923150;-78
2022/07/21 01:20:06;;;;;;;3.17;1.54;;;;;;;18.31;62.87;100112.16;460976;115;922981;-78
2022/07/21 01:21:34;;;;;;;1.63;1.51;;;;;;;18.32;62.87;100113.82;460754;115;923050;-78
2022/07/21 01:22:39;;;;;;;2.28;1.69;;;;;;;18.33;62.81;100104.44;460759;115;922585;-77
2022/07/21 01:23:42;;;;;;;2.17;1.91;;;;;;;18.33;62.85;100113.55;460739;115;922597;-78
2022/07/21 01:24:45;;;;;;;1.90;1.54;;;;;;;18.32;62.79;100109.13;460951;115;922863;-78
2022/07/21 01:25:49;;;;;;;1.91;1.62;;;;;;;18.32;62.78;100102.78;460985;115;922506;-79
2022/07/21 01:26:53;;;;;;;1.77;1.67;;;;;;;18.32;62.79;100102.78;460898;115;922605;-78
2022/07/21 01:27:56;;;;;;;1.67;1.57;;;;;;;18.32;62.81;100105.55;460877;115;923074;-78
2022/07/21 01:28:59;;;;;;;2.49;1.72;;;;;;;18.32;62.98;100105.55;460939;115;923113;-78
2022/07/21 01:30:07;;;;;;;2.39;1.95;;;;;;;18.32;62.98;100105.55;455041;115;923044;-78
2022/07/21 01:31:11;;;;;;;1.78;1.67;;;;;;;18.33;62.84;100109.97;440354;120;922524;-78
2022/07/21 01:32:14;;;;;;;3.04;1.59;;;;;;;18.32;62.84;100103.61;448435;118;923014;-78
2022/07/21 01:33:17;;;;;;;1.85;1.62;;;;;;;18.33;62.71;100107.20;448566;118;922585;-78
2022/07/21 01:34:20;;;;;;;1.69;1.58;;;;;;;18.32;62.67;100108.30;443529;117;922521;-78
2022/07/21 01:35:24;;;;;;;1.73;1.43;;;;;;;18.32;62.81;100105.55;440567;120;922542;-79
2022/07/21 01:36:27;;;;;;;2.20;1.77;;;;;;;18.33;62.74;100110.80;448375;118;922952;-78
2022/07/21 01:37:31;;;;;;;3.03;2.12;;;;;;;18.32;62.77;100108.30;448428;118;923520;-78
2022/07/21 01:41:35;;;;;;;1.68;1.58;;;;;;;18.32;62.88;100105.55;448309;118;922812;-78
2022/07/21 01:42:36;;;;;;;1.81;1.69;;;;;;;18.32;62.78;100119.34;447778;118;922622;-78
2022/07/21 01:43:39;;;;;;;2.14;1.72;;;;;;;18.31;62.78;100110.23;448392;118;923040;-77
2022/07/21 01:44:42;;;;;;;2.09;1.96;;;;;;;18.32;62.67;100108.30;448429;118;923063;-78
2022/07/21 01:45:45;;;;;;;2.43;1.74;;;;;;;18.29;62.51;100111.63;448458;118;923212;-78
2022/07/21 01:46:51;;;;;;;2.52;2.04;;;;;;;18.27;62.62;100108.31;448320;118;922898;-78
2022/07/21 01:47:54;;;;;;;2.31;1.86;;;;;;;18.25;62.61;100108.58;448196;118;923007;-78
2022/07/21 01:48:58;;;;;;;2.03;1.86;;;;;;;18.26;62.73;100114.92;448285;118;923235;-78
2022/07/21 01:50:02;;;;;;;1.98;1.88;;;;;;;18.25;62.65;100110.50;440755;120;930420;-78
2022/07/21 01:51:05;;;;;;;2.06;1.91;;;;;;;18.25;62.67;100108.58;439748;120;922966;-78
2022/07/21 01:52:08;;;;;;;2.14;1.98;;;;;;;18.24;62.72;100109.70;448436;118;922993;-77
2022/07/21 01:53:11;;;;;;;3.96;1.83;;;;;;;18.25;62.73;100111.34;448392;118;922975;-77
2022/07/21 01:54:14;;;;;;;2.39;2.17;;;;;;;18.26;62.69;100110.23;440911;120;922872;-78
2022/07/21 01:55:19;;;;;;;2.01;1.84;;;;;;;18.25;62.57;100104.98;438852;120;923042;-78
2022/07/21 01:56:24;;;;;;;2.18;1.79;;;;;;;18.24;62.65;100108.88;448354;118;923117;-77
2022/07/21 01:57:27;;;;;;;2.33;2.13;;;;;;;18.22;62.57;100113.83;448241;118;922615;-78
2022/07/21 01:58:31;;;;;;;2.43;1.96;;;;;;;18.20;62.59;100111.34;440851;120;930309;-78
2022/07/21 01:59:34;;;;;;;3.21;2.05;;;;;;;18.20;62.59;100111.34;439689;120;923003;-78
2022/07/21 02:00:38;;;;;;;2.25;2.06;;;;;;;18.19;62.59;100115.20;448350;118;922572;-78
2022/07/21 02:01:41;;;;;;;3.12;1.98;;;;;;;18.18;62.65;100110.81;448422;118;923029;-78
2022/07/21 02:02:44;;;;;;;2.30;2.10;;;;;;;18.18;62.70;100109.98;440830;120;923292;-78
2022/07/21 02:03:48;;;;;;;2.06;1.86;;;;;;;18.18;62.65;100098.94;444374;118;923146;-78
2022/07/21 02:04:52;;;;;;;2.27;1.90;;;;;;;18.19;62.63;100106.13;448195;118;922546;-77
2022/07/21 02:06:03;;;;;;;2.12;1.90;;;;;;;18.19;62.69;100101.41;456065;116;930399;-78
2022/07/21 02:07:07;;;;;;;2.32;2.00;;;;;;;18.20;62.62;100102.23;451716;116;923185;-78
2022/07/21 02:08:10;;;;;;;3.59;2.45;;;;;;;18.20;62.61;100105.82;448394;118;922819;-78
2022/07/21 02:09:13;;;;;;;2.67;2.17;;;;;;;18.21;62.60;100104.72;448370;117;922818;-78
2022/07/21 02:10:16;;;;;;;2.56;2.35;;;;;;;18.22;62.60;100103.62;448331;118;922472;-77
2022/07/21 02:11:20;;;;;;;2.06;1.88;;;;;;;18.22;62.60;100106.38;448436;118;923140;-78
2022/07/21 02:12:23;;;;;;;4.90;2.42;;;;;;;18.21;62.61;100103.89;448310;118;923069;-78
2022/07/21 02:13:26;;;;;;;2.12;1.98;;;;;;;18.20;62.63;100111.34;448433;118;922898;-77
2022/07/21 02:14:29;;;;;;;4.04;2.49;;;;;;;18.19;62.64;100106.13;449443;116;923081;-78
2022/07/21 02:15:33;;;;;;;3.59;2.09;;;;;;;18.19;62.63;100103.36;456224;116;922981;-78
2022/07/21 02:16:36;;;;;;;3.04;1.94;;;;;;;18.16;62.64;100101.97;456142;116;922566;-77
2022/07/21 02:17:39;;;;;;;2.98;2.11;;;;;;;18.14;62.58;100101.41;456216;116;922692;-78
2022/07/21 02:18:42;;;;;;;2.09;1.89;;;;;;;18.14;62.57;100106.13;456198;116;922842;-78
2022/07/21 02:19:45;;;;;;;2.07;1.79;;;;;;;18.10;62.52;100105.00;440266;120;923068;-78
2022/07/21 02:20:50;;;;;;;1.84;1.74;;;;;;;18.08;62.47;100109.98;455790;114;922934;-78
2022/07/21 02:21:53;;;;;;;2.61;2.22;;;;;;;18.06;62.55;100117.70;463443;114;923080;-78
2022/07/21 02:22:57;;;;;;;2.82;1.89;;;;;;;18.03;62.52;100115.50;465550;114;922581;-78
2022/07/21 02:24:00;;;;;;;1.94;1.81;;;;;;;18.03;62.61;100118.27;465511;114;922637;-78
2022/07/21 02:25:03;;;;;;;3.62;1.77;;;;;;;18.01;62.81;100121.28;456788;116;922605;-77
2022/07/21 02:26:07;;;;;;;1.98;1.86;;;;;;;18.01;62.74;100121.28;457190;114;923164;-78
2022/07/21 02:27:10;;;;;;;2.91;1.74;;;;;;;18.03;62.73;100123.78;465462;114;922628;-78
2022/07/21 02:28:14;;;;;;;2.25;2.02;;;;;;;18.03;62.79;100118.27;465560;114;923075;-78
2022/07/21 02:29:17;;;;;;;2.47;2.12;;;;;;;18.04;62.73;100123.48;465489;114;922604;-79
2022/07/21 02:30:23;;;;;;;3.11;2.02;;;;;;;18.06;62.79;100117.70;460716;114;922761;-78
2022/07/21 02:31:26;;;;;;;2.86;2.20;;;;;;;18.07;62.67;100116.59;465569;114;922935;-77
2022/07/21 02:32:29;;;;;;;1.95;1.62;;;;;;;18.06;62.68;100112.17;465564;114;922474;-77
2022/07/21 02:33:32;;;;;;;2.71;1.72;;;;;;;18.06;62.70;100112.17;463159;114;922931;-77
2022/07/21 02:34:35;;;;;;;1.76;1.66;;;;;;;18.07;62.81;100108.32;454665;116;922457;-77
2022/07/21 02:35:38;;;;;;;2.16;1.81;;;;;;;18.07;62.78;100108.32;454662;116;922501;-77
2022/07/21 02:36:41;;;;;;;2.26;2.02;;;;;;;18.08;62.83;100110.81;454702;116;923042;-78
2022/07/21 02:37:44;;;;;;;1.97;1.64;;;;;;;18.08;62.85;100107.22;454722;116;922563;-77
2022/07/21 02:38:47;;;;;;;2.14;1.94;;;;;;;18.06;62.94;100106.66;454659;116;922644;-77
2022/07/21 02:39:50;;;;;;;3.87;2.15;;;;;;;18.06;62.87;100098.38;454649;116;923191;-77
2022/07/21 02:40:54;;;;;;;1.84;1.61;;;;;;;18.05;62.90;100099.48;454666;116;923061;-77
2022/07/21 02:41:59;;;;;;;1.61;1.48;;;;;;;18.06;63.03;100106.66;454485;116;922632;-77
2022/07/21 02:43:03;;;;;;;2.91;1.67;;;;;;;18.06;63.11;100106.66;454615;116;923053;-77
2022/07/21 02:44:06;;;;;;;2.56;1.51;;;;;;;18.07;63.14;100102.80;454513;116;923156;-77
2022/07/21 02:45:10;;;;;;;2.08;1.68;;;;;;;18.08;63.17;100102.53;454638;116;922686;-77
2022/07/21 02:46:14;;;;;;;4.23;1.83;;;;;;;18.09;63.19;100100.58;454448;116;922444;-77
2022/07/21 02:47:18;;;;;;;2.18;1.65;;;;;;;18.11;63.22;100107.48;454516;116;922568;-77
2022/07/21 02:48:20;;;;;;;1.83;1.73;;;;;;;18.13;63.29;100104.46;454560;116;930376;-77
2022/07/21 02:49:24;;;;;;;2.21;1.67;;;;;;;18.14;63.18;100101.41;454609;116;922522;-77
2022/07/21 02:50:31;;;;;;;2.11;1.61;;;;;;;18.14;63.24;100095.89;454607;116;922643;-77
2022/07/21 02:51:34;;;;;;;1.77;1.67;;;;;;;18.14;63.25;100100.61;454495;116;923350;-77
2022/07/21 02:52:37;;;;;;;3.67;2.30;;;;;;;18.12;63.15;100103.62;454651;116;922537;-76
2022/07/21 02:53:41;;;;;;;1.76;1.66;;;;;;;18.12;63.07;100098.11;454540;116;922862;-77
2022/07/21 02:54:44;;;;;;;1.76;1.66;;;;;;;18.10;63.04;100102.23;454612;116;922541;-77
2022/07/21 02:55:49;;;;;;;2.69;1.72;;;;;;;18.08;63.07;100101.70;454645;116;922621;-77
2022/07/21 02:56:52;;;;;;;1.94;1.74;;;;;;;18.06;63.24;100101.14;454496;116;923055;-77
2022/07/21 02:58:07;;;;;;;1.69;1.59;;;;;;;18.05;63.31;100105.83;454646;116;925658;-77
2022/07/21 02:59:09;;;;;;;2.14;1.97;;;;;;;18.05;63.25;100096.72;454439;116;923178;-76
2022/07/21 03:00:14;;;;;;;2.34;1.88;;;;;;;18.04;63.33;100103.34;451100;114;922545;-77
2022/07/21 03:01:18;;;;;;;2.14;2.00;;;;;;;18.02;63.40;100100.88;450735;117;923010;-76
2022/07/21 03:02:22;;;;;;;2.21;1.95;;;;;;;18.02;63.40;100095.36;450671;117;922866;-77
2022/07/21 03:03:27;;;;;;;1.90;1.78;;;;;;;18.00;63.34;100096.72;450711;117;923112;-78
2022/07/21 03:04:30;;;;;;;2.21;2.03;;;;;;;17.99;63.42;100090.38;450517;117;923084;-78
2022/07/21 03:05:34;;;;;;;2.33;1.99;;;;;;;17.99;63.46;100090.38;450772;117;922507;-78
2022/07/21 03:06:37;;;;;;;3.34;2.06;;;;;;;17.98;63.49;100094.23;450988;116;923003;-77
2022/07/21 03:07:40;;;;;;;3.22;2.14;;;;;;;17.98;63.48;100091.47;454624;116;922628;-78
2022/07/21 03:08:43;;;;;;;3.63;2.05;;;;;;;18.00;63.58;100096.72;454659;116;923017;-78
2022/07/21 03:09:46;;;;;;;2.12;1.96;;;;;;;17.98;63.54;100096.98;454680;116;922900;-78
2022/07/21 03:10:50;;;;;;;2.54;2.34;;;;;;;17.99;63.49;100095.06;454611;116;923025;-78
2022/07/21 03:11:53;;;;;;;2.27;1.85;;;;;;;17.98;63.48;100087.88;454680;116;922606;-78
2022/07/21 03:12:56;;;;;;;2.49;2.26;;;;;;;17.98;63.53;100093.40;454627;116;923080;-78
2022/07/21 03:14:00;;;;;;;2.64;2.44;;;;;;;17.97;63.38;100100.05;454571;116;922697;-78
2022/07/21 03:15:03;;;;;;;3.70;2.46;;;;;;;17.95;63.58;100093.96;459256;115;922596;-78
2022/07/21 03:16:06;;;;;;;2.21;2.05;;;;;;;17.95;63.56;100097.55;461289;115;922485;-77
2022/07/21 03:17:09;;;;;;;2.61;2.44;;;;;;;17.93;63.45;100097.82;461335;115;930365;-78
2022/07/21 03:18:12;;;;;;;2.69;2.51;;;;;;;17.91;63.32;100100.05;461403;115;922517;-77
2022/07/21 03:19:15;;;;;;;2.83;2.39;;;;;;;17.88;63.21;100100.58;461430;115;922545;-78
2022/07/21 03:20:23;;;;;;;2.55;2.35;;;;;;;17.84;63.21;100101.41;461040;115;922521;-77
2022/07/21 03:21:26;;;;;;;3.17;2.33;;;;;;;17.80;63.30;100101.14;461154;115;930270;-77
2022/07/21 03:22:29;;;;;;;2.71;2.15;;;;;;;17.76;63.34;100102.77;461419;115;923040;-77
2022/07/21 03:23:32;;;;;;;4.37;2.33;;;;;;;17.72;63.27;100101.66;461430;115;922765;-77
2022/07/21 03:24:35;;;;;;;2.71;2.51;;;;;;;17.62;63.19;100100.81;461429;115;923030;-77
2022/07/21 03:25:39;;;;;;;2.60;2.39;;;;;;;17.62;63.19;100100.81;461446;115;923036;-77
2022/07/21 03:26:42;;;;;;;3.11;2.16;;;;;;;17.50;63.65;100101.86;452754;117;923010;-77
2022/07/21 03:27:46;;;;;;;2.99;2.34;;;;;;;17.50;63.65;100101.86;453087;115;930345;-77
2022/07/21 03:28:49;;;;;;;2.52;2.14;;;;;;;17.46;63.76;100108.20;461313;115;922893;-77
2022/07/21 03:29:52;;;;;;;3.01;2.33;;;;;;;17.43;63.80;100109.55;459619;115;930339;-77
2022/07/21 03:30:56;;;;;;;2.52;2.31;;;;;;;17.40;63.85;100106.52;461982;113;922791;-77
2022/07/21 03:31:59;;;;;;;4.35;2.07;;;;;;;17.35;63.94;100112.85;460829;115;922610;-77
2022/07/21 03:33:02;;;;;;;2.14;1.90;;;;;;;17.31;64.10;100119.98;460879;115;923114;-77
2022/07/21 03:34:05;;;;;;;3.05;2.01;;;;;;;17.29;64.26;100121.36;458354;114;922842;-78
2022/07/21 03:35:10;;;;;;;1.98;1.88;;;;;;;17.24;64.37;100116.67;455626;116;923074;-77
2022/07/21 03:36:15;;;;;;;1.93;1.83;;;;;;;17.22;64.50;100116.10;455162;116;922940;-77
2022/07/21 03:37:18;;;;;;;2.36;2.22;;;;;;;17.19;64.46;100126.84;455586;116;922920;-77
2022/07/21 03:38:21;;;;;;;2.42;2.00;;;;;;;17.14;64.50;100121.31;455602;116;922771;-77
2022/07/21 03:39:24;;;;;;;2.50;2.29;;;;;;;17.09;64.73;100113.86;455599;116;922768;-78
2022/07/21 03:40:31;;;;;;;2.36;2.16;;;;;;;17.07;64.92;100119.63;455505;116;922816;-77
2022/07/21 03:41:34;;;;;;;2.64;1.98;;;;;;;17.04;64.81;100117.39;455383;116;930340;-78
2022/07/21 03:42:37;;;;;;;2.01;1.91;;;;;;;17.00;64.91;100108.02;455566;116;923019;-77
2022/07/21 03:43:40;;;;;;;3.11;2.18;;;;;;;16.98;65.09;100109.41;455528;116;922985;-77
2022/07/21 03:44:43;;;;;;;2.37;2.16;;;;;;;16.96;65.06;100115.17;455586;116;923447;-77
2022/07/21 03:45:46;;;;;;;7.41;2.13;;;;;;;16.97;65.18;100122.34;455604;116;922603;-77
2022/07/21 03:46:50;;;;;;;1.97;1.80;;;;;;;16.98;65.33;100118.47;455554;116;922544;-78
2022/07/21 03:47:53;;;;;;;3.12;1.83;;;;;;;16.99;65.33;100120.12;455593;116;923021;-77
2022/07/21 03:48:56;;;;;;;2.28;2.08;;;;;;;17.01;65.46;100117.12;455486;116;922943;-78
2022/07/21 03:49:59;;;;;;;1.87;1.76;;;;;;;17.04;65.61;100114.64;455476;116;922440;-78
2022/07/21 03:51:03;;;;;;;2.15;1.91;;;;;;;17.10;65.68;100119.08;455568;116;923339;-77
2022/07/21 03:52:06;;;;;;;2.65;2.19;;;;;;;17.16;65.68;100122.69;455527;116;922989;-77
2022/07/21 03:53:09;;;;;;;2.89;2.36;;;;;;;17.22;65.61;100121.61;455543;116;922499;-77
2022/07/21 03:54:12;;;;;;;3.49;2.21;;;;;;;17.28;65.47;100127.97;455596;116;922511;-78
2022/07/21 03:55:17;;;;;;;2.19;2.04;;;;;;;17.31;65.29;100121.94;455553;116;922801;-78
2022/07/21 03:56:20;;;;;;;3.52;2.07;;;;;;;17.30;65.14;100129.38;454135;114;923091;-78
2022/07/21 03:57:23;;;;;;;2.60;2.22;;;;;;;17.30;65.06;100123.03;453653;117;922542;-78
2022/07/21 03:58:26;;;;;;;3.44;2.36;;;;;;;17.29;65.04;100121.36;453593;117;922583;-78
2022/07/21 03:59:29;;;;;;;2.77;2.23;;;;;;;17.29;65.21;100124.13;453578;117;922913;-77
2022/07/21 04:00:38;;;;;;;2.11;1.88;;;;;;;17.30;65.24;100126.61;453552;117;922593;-78
2022/07/21 04:01:41;;;;;;;2.24;1.69;;;;;;;17.34;65.30;100129.65;453332;117;922924;-78
2022/07/21 04:02:46;;;;;;;2.37;2.17;;;;;;;17.38;65.15;100128.00;453634;117;923065;-78
2022/07/21 04:03:49;;;;;;;2.16;2.00;;;;;;;17.42;64.89;100123.62;453490;117;922552;-75
2022/07/21 04:04:52;;;;;;;2.89;2.11;;;;;;;17.43;64.80;100125.26;453639;117;923050;-78
2022/07/21 04:05:55;;;;;;;3.21;1.96;;;;;;;17.42;64.56;100123.62;453641;117;922973;-77
2022/07/21 04:06:58;;;;;;;3.12;2.41;;;;;;;17.41;64.43;100131.06;454464;116;922747;-78
2022/07/21 04:08:02;;;;;;;2.36;2.19;;;;;;;17.38;64.30;100134.34;455643;116;923031;-77
2022/07/21 04:09:05;;;;;;;2.28;2.00;;;;;;;17.35;64.14;100131.31;455414;116;922911;-77
2022/07/21 04:10:11;;;;;;;2.12;1.99;;;;;;;17.30;64.19;100132.13;455566;116;930262;-78
2022/07/21 04:11:14;;;;;;;2.71;2.13;;;;;;;17.29;64.35;100132.39;455385;116;923288;-76
2022/07/21 04:12:17;;;;;;;2.30;2.08;;;;;;;17.29;64.42;100130.47;455666;116;922592;-79
2022/07/21 04:13:20;;;;;;;2.29;2.09;;;;;;;17.30;64.46;100131.30;455637;116;922874;-75
2022/07/21 04:14:25;;;;;;;3.59;2.11;;;;;;;17.31;64.55;100127.45;455590;114;922597;-79
2022/07/21 04:15:29;;;;;;;2.61;2.12;;;;;;;17.33;64.75;100137.08;463628;114;922972;-76
2022/07/21 04:16:32;;;;;;;2.42;2.21;;;;;;;17.37;64.44;100135.44;463615;114;922990;-76
2022/07/21 04:17:37;;;;;;;2.81;2.33;;;;;;;17.38;64.34;100131.59;463700;114;922788;-79
2022/07/21 04:18:40;;;;;;;2.34;2.14;;;;;;;17.39;64.39;100130.50;463607;114;922469;-79
2022/07/21 04:19:43;;;;;;;2.11;1.99;;;;;;;17.41;64.48;100131.06;463686;114;922533;-78
2022/07/21 04:20:46;;;;;;;2.48;2.18;;;;;;;17.43;64.62;100133.53;463579;114;922549;-79
2022/07/21 04:21:49;;;;;;;1.91;1.71;;;;;;;17.48;64.67;100136.30;463673;114;922483;-78
2022/07/21 04:22:53;;;;;;;3.86;1.86;;;;;;;17.51;64.30;100135.77;463579;114;922433;-79
2022/07/21 04:23:56;;;;;;;2.41;2.18;;;;;;;17.52;64.21;100142.95;463565;114;922519;-76
2022/07/21 04:24:59;;;;;;;2.08;1.81;;;;;;;17.55;64.25;100141.56;463624;114;923128;-76
2022/07/21 04:26:02;;;;;;;2.04;1.82;;;;;;;17.56;63.93;100135.78;463618;114;922590;-77
2022/07/21 04:27:06;;;;;;;1.69;1.39;;;;;;;17.57;63.53;100136.62;463707;114;922766;-77
2022/07/21 04:28:11;;;;;;;1.93;1.36;;;;;;;17.55;63.38;100141.56;463599;114;922869;-76
2022/07/21 04:29:13;;;;;;;1.89;1.65;;;;;;;17.51;63.45;100133.84;463429;114;922464;-77
2022/07/21 04:30:20;;;;;;;3.20;1.59;;;;;;;17.49;63.48;100132.45;459288;113;922528;-77
2022/07/21 04:31:23;;;;;;;4.11;1.37;;;;;;;17.47;63.40;100135.50;461572;115;922911;-78
2022/07/21 04:32:26;;;;;;;1.94;1.60;;;;;;;17.45;63.51;100123.07;461784;115;923027;-77
2022/07/21 04:33:29;;;;;;;1.69;1.43;;;;;;;17.45;63.54;100131.34;461776;115;922750;-77
2022/07/21 04:34:34;;;;;;;1.92;1.43;;;;;;;17.47;63.75;100131.91;447708;118;923116;-78
2022/07/21 04:35:37;;;;;;;2.59;1.66;;;;;;;17.50;63.96;100125.84;448551;118;923069;-77
2022/07/21 04:36:40;;;;;;;2.54;1.34;;;;;;;17.54;63.89;100121.44;448480;118;922464;-77
2022/07/21 04:37:43;;;;;;;2.25;1.25;;;;;;;17.58;63.83;100114.30;448461;118;922940;-78
2022/07/21 04:38:48;;;;;;;2.39;1.35;;;;;;;17.63;63.86;100124.53;448451;118;922539;-77
2022/07/21 04:39:51;;;;;;;1.44;1.31;;;;;;;17.68;63.79;100121.79;448352;118;922554;-77
2022/07/21 04:40:56;;;;;;;2.05;1.36;;;;;;;17.74;63.79;100124.29;448310;118;923465;-77
2022/07/21 04:41:59;;;;;;;1.51;1.41;;;;;;;17.80;63.61;100123.20;448411;118;930782;-77
2022/07/21 04:43:03;;;;;;;3.28;1.35;;;;;;;17.84;63.35;100132.58;448402;118;922869;-77
2022/07/21 04:44:06;;;;;;;4.17;1.44;;;;;;;17.84;62.76;100123.47;448360;118;930605;-77
2022/07/21 04:45:12;;;;;;;2.38;1.63;;;;;;;17.82;62.76;100123.73;448455;118;922458;-78
2022/07/21 04:46:15;;;;;;;1.83;1.38;;;;;;;17.82;62.92;100128.42;448299;118;923150;-77
2022/07/21 04:47:19;;;;;;;1.42;1.22;;;;;;;17.83;63.07;100130.91;448436;118;922531;-78
2022/07/21 04:48:22;;;;;;;2.01;1.48;;;;;;;17.86;63.19;100135.87;448589;118;922614;-78
2022/07/21 04:49:25;;;;;;;2.37;1.46;;;;;;;17.90;63.11;100133.41;447730;118;922552;-77
2022/07/21 04:50:31;;;;;;;3.81;1.52;;;;;;;17.91;63.15;100135.07;448078;118;922586;-78
2022/07/21 04:51:35;;;;;;;1.31;1.23;;;;;;;17.92;63.04;100137.53;448257;118;930364;-77
2022/07/21 04:52:37;;;;;;;3.69;1.60;;;;;;;17.93;63.02;100147.47;447156;116;922567;-78
2022/07/21 04:53:40;;;;;;;3.15;1.92;;;;;;;17.94;62.91;100140.03;446511;119;923198;-78
2022/07/21 04:54:43;;;;;;;2.74;1.62;;;;;;;17.92;62.78;100148.56;446529;119;922617;-77
2022/07/21 04:55:46;;;;;;;2.12;1.49;;;;;;;17.89;62.76;100151.88;446562;119;922700;-77
2022/07/21 04:56:50;;;;;;;4.26;2.01;;;;;;;17.88;62.81;100144.70;446536;119;923094;-77
2022/07/21 04:57:53;;;;;;;3.22;1.66;;;;;;;17.86;62.96;100143.34;446539;119;923081;-76